sensor_id;sensor_type;location;lat;lon;timestamp;pressure;altitude;pressure_sealevel;temperature;humidity
56671;BME280;42545;50.054;8.306;2022-08-21T00:00:27;100038.81;;;16.70;64.61
56671;BME280;42545;50.054;8.306;2022-08-21T00:02:55;100043.25;;;16.68;64.77
56671;BME280;42545;50.054;8.306;2022-08-21T00:05:23;100039.72;;;16.67;64.73
56671;BME280;42545;50.054;8.306;2022-08-21T00:07:50;100043.28;;;16.66;64.89
56671;BME280;42545;50.054;8.306;2022-08-21T00:10:19;100046.84;;;16.67;65.00
56671;BME280;42545;50.054;8.306;2022-08-21T00:12:47;100044.19;;;16.65;64.91
56671;BME280;42545;50.054;8.306;2022-08-21T00:15:17;100039.75;;;16.64;64.78
56671;BME280;42545;50.054;8.306;2022-08-21T00:17:44;100033.56;;;16.61;64.88
56671;BME280;42545;50.054;8.306;2022-08-21T00:20:12;100041.53;;;16.64;64.71
56671;BME280;42545;50.054;8.306;2022-08-21T00:22:40;100032.69;;;16.60;64.78
56671;BME280;42545;50.054;8.306;2022-08-21T00:25:08;100029.16;;;16.58;65.17
56671;BME280;42545;50.054;8.306;2022-08-21T00:27:37;100034.50;;;16.55;65.15
56671;BME280;42545;50.054;8.306;2022-08-21T00:30:06;100023.91;;;16.47;65.29
56671;BME280;42545;50.054;8.306;2022-08-21T00:32:36;100025.72;;;16.41;65.49
56671;BME280;42545;50.054;8.306;2022-08-21T00:35:03;100022.25;;;16.36;66.01
56671;BME280;42545;50.054;8.306;2022-08-21T00:37:30;100024.06;;;16.32;66.23
56671;BME280;42545;50.054;8.306;2022-08-21T00:39:57;100033.84;;;16.25;66.20
56671;BME280;42545;50.054;8.306;2022-08-21T00:42:24;100032.13;;;16.21;66.19
56671;BME280;42545;50.054;8.306;2022-08-21T00:44:53;100027.66;;;16.23;66.39
56671;BME280;42545;50.054;8.306;2022-08-21T00:47:20;100022.34;;;16.25;65.91
56671;BME280;42545;50.054;8.306;2022-08-21T00:49:47;100027.66;;;16.23;66.02
56671;BME280;42545;50.054;8.306;2022-08-21T00:52:17;100032.09;;;16.23;65.94
56671;BME280;42545;50.054;8.306;2022-08-21T00:54:47;100034.78;;;16.18;66.23
56671;BME280;42545;50.054;8.306;2022-08-21T00:57:17;100028.59;;;16.14;66.49
56671;BME280;42545;50.054;8.306;2022-08-21T00:59:48;100035.72;;;16.11;66.42
56671;BME280;42545;50.054;8.306;2022-08-21T01:02:18;100027.75;;;16.08;66.77
56671;BME280;42545;50.054;8.306;2022-08-21T01:04:45;100023.34;;;16.07;66.38
56671;BME280;42545;50.054;8.306;2022-08-21T01:07:13;100026.00;;;16.05;66.50
56671;BME280;42545;50.054;8.306;2022-08-21T01:09:40;100038.44;;;16.05;66.56
56671;BME280;42545;50.054;8.306;2022-08-21T01:12:08;100040.19;;;16.04;66.58
56671;BME280;42545;50.054;8.306;2022-08-21T01:14:35;100033.13;;;16.02;66.67
56671;BME280;42545;50.054;8.306;2022-08-21T01:17:02;100035.78;;;15.99;66.77
56671;BME280;42545;50.054;8.306;2022-08-21T01:19:31;100031.38;;;15.96;66.79
56671;BME280;42545;50.054;8.306;2022-08-21T01:22:00;100033.16;;;15.95;66.89
56671;BME280;42545;50.054;8.306;2022-08-21T01:24:27;100024.28;;;15.95;67.34
56671;BME280;42545;50.054;8.306;2022-08-21T01:26:57;100029.63;;;15.93;67.14
56671;BME280;42545;50.054;8.306;2022-08-21T01:29:31;100034.97;;;15.92;67.16
56671;BME280;42545;50.054;8.306;2022-08-21T01:32:03;100027.00;;;15.90;67.32
56671;BME280;42545;50.054;8.306;2022-08-21T01:34:31;100029.66;;;15.87;67.32
56671;BME280;42545;50.054;8.306;2022-08-21T01:37:02;100020.81;;;15.84;67.10
56671;BME280;42545;50.054;8.306;2022-08-21T01:39:30;100019.94;;;15.82;67.47
56671;BME280;42545;50.054;8.306;2022-08-21T01:41:57;100022.59;;;15.79;67.71
56671;BME280;42545;50.054;8.306;2022-08-21T01:44:24;100022.63;;;15.75;67.60
56671;BME280;42545;50.054;8.306;2022-08-21T01:46:52;100027.94;;;15.72;67.76
56671;BME280;42545;50.054;8.306;2022-08-21T01:49:21;100027.06;;;15.69;67.99
56671;BME280;42545;50.054;8.306;2022-08-21T01:51:47;100027.97;;;15.66;68.04
56671;BME280;42545;50.054;8.306;2022-08-21T01:54:16;100016.47;;;15.61;68.27
56671;BME280;42545;50.054;8.306;2022-08-21T01:56:45;100024.44;;;15.60;68.40
56671;BME280;42545;50.054;8.306;2022-08-21T01:59:13;100022.69;;;15.55;68.93
56671;BME280;42545;50.054;8.306;2022-08-21T02:01:40;100015.59;;;15.54;69.01
56671;BME280;42545;50.054;8.306;2022-08-21T02:04:07;100006.75;;;15.52;69.20
56671;BME280;42545;50.054;8.306;2022-08-21T02:06:34;100008.53;;;15.52;69.21
56671;BME280;42545;50.054;8.306;2022-08-21T02:09:02;100005.00;;;15.50;69.24
56671;BME280;42545;50.054;8.306;2022-08-21T02:11:32;100004.09;;;15.51;69.23
56671;BME280;42545;50.054;8.306;2022-08-21T02:14:00;100004.09;;;15.49;69.12
56671;BME280;42545;50.054;8.306;2022-08-21T02:16:27;100004.13;;;15.46;69.12
56671;BME280;42545;50.054;8.306;2022-08-21T02:18:54;100001.47;;;15.43;69.46
56671;BME280;42545;50.054;8.306;2022-08-21T02:21:21;99998.81;;;15.40;69.73
56671;BME280;42545;50.054;8.306;2022-08-21T02:23:48;100003.25;;;15.35;69.95
56671;BME280;42545;50.054;8.306;2022-08-21T02:26:14;99999.78;;;15.30;69.98
56671;BME280;42545;50.054;8.306;2022-08-21T02:28:43;100006.00;;;15.23;69.98
56671;BME280;42545;50.054;8.306;2022-08-21T02:31:10;100006.00;;;15.18;70.20
56671;BME280;42545;50.054;8.306;2022-08-21T02:33:38;100001.59;;;15.11;70.31
56671;BME280;42545;50.054;8.306;2022-08-21T02:36:06;100004.28;;;15.08;70.58
56671;BME280;42545;50.054;8.306;2022-08-21T02:38:34;100006.06;;;15.01;70.87
56671;BME280;42545;50.054;8.306;2022-08-21T02:41:03;100002.53;;;14.90;70.82
56671;BME280;42545;50.054;8.306;2022-08-21T02:43:30;100003.44;;;14.83;70.98
56671;BME280;42545;50.054;8.306;2022-08-21T02:45:59;100000.78;;;14.66;71.18
56671;BME280;42545;50.054;8.306;2022-08-21T02:48:29;99999.91;;;14.50;71.90
56671;BME280;42545;50.054;8.306;2022-08-21T02:50:58;100001.66;;;14.40;73.51
56671;BME280;42545;50.054;8.306;2022-08-21T02:53:26;100007.00;;;14.38;73.65
56671;BME280;42545;50.054;8.306;2022-08-21T02:55:54;100006.97;;;14.40;73.86
56671;BME280;42545;50.054;8.306;2022-08-21T02:58:22;100007.88;;;14.42;73.88
56671;BME280;42545;50.054;8.306;2022-08-21T03:00:50;100015.84;;;14.40;73.79
56671;BME280;42545;50.054;8.306;2022-08-21T03:03:19;100016.69;;;14.36;74.18
56671;BME280;42545;50.054;8.306;2022-08-21T03:05:46;100015.81;;;14.33;74.45
56671;BME280;42545;50.054;8.306;2022-08-21T03:08:14;100018.47;;;14.28;74.74
56671;BME280;42545;50.054;8.306;2022-08-21T03:10:43;100018.47;;;14.25;74.79
56671;BME280;42545;50.054;8.306;2022-08-21T03:13:10;100006.09;;;14.21;75.22
56671;BME280;42545;50.054;8.306;2022-08-21T03:15:37;100011.38;;;14.19;75.57
56671;BME280;42545;50.054;8.306;2022-08-21T03:18:06;100005.19;;;14.17;75.69
56671;BME280;42545;50.054;8.306;2022-08-21T03:20:35;100006.06;;;14.19;75.66
56671;BME280;42545;50.054;8.306;2022-08-21T03:23:04;100009.63;;;14.21;75.54
56671;BME280;42545;50.054;8.306;2022-08-21T03:25:32;100007.84;;;14.27;76.11
56671;BME280;42545;50.054;8.306;2022-08-21T03:27:59;99999.03;;;14.29;75.87
56671;BME280;42545;50.054;8.306;2022-08-21T03:30:26;100004.31;;;14.32;76.00
56671;BME280;42545;50.054;8.306;2022-08-21T03:32:52;100002.53;;;14.36;76.22
56671;BME280;42545;50.054;8.306;2022-08-21T03:35:20;100004.31;;;14.40;76.49
56671;BME280;42545;50.054;8.306;2022-08-21T03:37:51;100002.56;;;14.42;76.65
56671;BME280;42545;50.054;8.306;2022-08-21T03:40:19;100003.44;;;14.42;76.81
56671;BME280;42545;50.054;8.306;2022-08-21T03:42:47;99995.47;;;14.44;76.98
56671;BME280;42545;50.054;8.306;2022-08-21T03:45:15;99999.03;;;14.46;77.07
56671;BME280;42545;50.054;8.306;2022-08-21T03:47:51;100001.69;;;14.48;77.36
56671;BME280;42545;50.054;8.306;2022-08-21T03:50:19;100003.41;;;14.47;77.28
56671;BME280;42545;50.054;8.306;2022-08-21T03:52:46;100006.09;;;14.46;77.35
56671;BME280;42545;50.054;8.306;2022-08-21T03:55:14;100004.31;;;14.45;77.24
56671;BME280;42545;50.054;8.306;2022-08-21T03:57:41;100001.66;;;14.43;77.41
56671;BME280;42545;50.054;8.306;2022-08-21T04:00:10;100007.84;;;14.43;77.76
56671;BME280;42545;50.054;8.306;2022-08-21T04:02:39;100009.63;;;14.43;77.91
56671;BME280;42545;50.054;8.306;2022-08-21T04:05:07;100015.81;;;14.43;78.01
56671;BME280;42545;50.054;8.306;2022-08-21T04:07:34;100017.59;;;14.46;77.97
56671;BME280;42545;50.054;8.306;2022-08-21T04:10:01;100023.78;;;14.48;78.07
56671;BME280;42545;50.054;8.306;2022-08-21T04:12:29;100022.00;;;14.49;78.33
56671;BME280;42545;50.054;8.306;2022-08-21T04:14:56;100022.03;;;14.46;78.00
56671;BME280;42545;50.054;8.306;2022-08-21T04:17:22;100021.13;;;14.47;77.96
56671;BME280;42545;50.054;8.306;2022-08-21T04:19:49;100022.91;;;14.46;77.95
56671;BME280;42545;50.054;8.306;2022-08-21T04:22:16;100029.09;;;14.48;77.85
56671;BME280;42545;50.054;8.306;2022-08-21T04:24:43;100033.50;;;14.49;77.38
56671;BME280;42545;50.054;8.306;2022-08-21T04:27:11;100035.28;;;14.49;77.46
56671;BME280;42545;50.054;8.306;2022-08-21T04:29:39;100033.50;;;14.49;77.37
56671;BME280;42545;50.054;8.306;2022-08-21T04:32:06;100034.41;;;14.51;77.00
56671;BME280;42545;50.054;8.306;2022-08-21T04:34:33;100046.78;;;14.51;76.49
56671;BME280;42545;50.054;8.306;2022-08-21T04:37:00;100045.03;;;14.47;76.49
56671;BME280;42545;50.054;8.306;2022-08-21T04:39:27;100053.00;;;14.39;76.28
56671;BME280;42545;50.054;8.306;2022-08-21T04:41:55;100049.44;;;14.28;76.45
56671;BME280;42545;50.054;8.306;2022-08-21T04:44:21;100060.06;;;14.18;76.58
56671;BME280;42545;50.054;8.306;2022-08-21T04:46:50;100052.06;;;14.11;76.84
56671;BME280;42545;50.054;8.306;2022-08-21T04:49:17;100060.00;;;14.04;76.99
56671;BME280;42545;50.054;8.306;2022-08-21T04:51:44;100050.25;;;14.03;77.41
56671;BME280;42545;50.054;8.306;2022-08-21T04:54:14;100052.94;;;14.02;77.41
56671;BME280;42545;50.054;8.306;2022-08-21T04:56:45;100046.72;;;14.00;77.79
56671;BME280;42545;50.054;8.306;2022-08-21T04:59:16;100053.81;;;14.01;78.02
56671;BME280;42545;50.054;8.306;2022-08-21T05:01:44;100052.91;;;13.97;78.00
56671;BME280;42545;50.054;8.306;2022-08-21T05:04:16;100058.22;;;13.97;78.13
56671;BME280;42545;50.054;8.306;2022-08-21T05:06:45;100056.44;;;13.98;78.25
56671;BME280;42545;50.054;8.306;2022-08-21T05:09:14;100058.25;;;14.00;78.64
56671;BME280;42545;50.054;8.306;2022-08-21T05:11:43;100065.31;;;14.04;78.71
56671;BME280;42545;50.054;8.306;2022-08-21T05:14:10;100064.44;;;14.07;78.63
56671;BME280;42545;50.054;8.306;2022-08-21T05:16:38;100069.75;;;14.10;78.94
56671;BME280;42545;50.054;8.306;2022-08-21T05:19:06;100068.00;;;14.14;79.11
56671;BME280;42545;50.054;8.306;2022-08-21T05:21:35;100066.25;;;14.19;79.08
56671;BME280;42545;50.054;8.306;2022-08-21T05:24:04;100068.88;;;14.23;79.42
56671;BME280;42545;50.054;8.306;2022-08-21T05:26:31;100068.91;;;14.28;79.19
56671;BME280;42545;50.054;8.306;2022-08-21T05:28:58;100066.25;;;14.33;78.70
56671;BME280;42545;50.054;8.306;2022-08-21T05:31:26;100074.22;;;14.37;78.40
56671;BME280;42545;50.054;8.306;2022-08-21T05:33:52;100071.59;;;14.42;78.28
56671;BME280;42545;50.054;8.306;2022-08-21T05:36:19;100065.38;;;14.49;78.74
56671;BME280;42545;50.054;8.306;2022-08-21T05:38:48;100064.50;;;14.56;78.85
56671;BME280;42545;50.054;8.306;2022-08-21T05:41:15;100071.59;;;14.64;78.70
56671;BME280;42545;50.054;8.306;2022-08-21T05:43:42;100072.50;;;14.72;78.13
56671;BME280;42545;50.054;8.306;2022-08-21T05:46:09;100070.75;;;14.78;77.62
56671;BME280;42545;50.054;8.306;2022-08-21T05:48:36;100074.25;;;14.84;77.12
56671;BME280;42545;50.054;8.306;2022-08-21T05:51:05;100076.91;;;14.88;76.92
56671;BME280;42545;50.054;8.306;2022-08-21T05:53:32;100071.59;;;14.94;76.61
56671;BME280;42545;50.054;8.306;2022-08-21T05:56:01;100075.13;;;15.03;76.51
56671;BME280;42545;50.054;8.306;2022-08-21T05:58:30;100066.28;;;15.10;76.58
56671;BME280;42545;50.054;8.306;2022-08-21T06:01:01;100047.66;;;15.07;76.43
56671;BME280;42545;50.054;8.306;2022-08-21T06:03:30;100071.53;;;15.30;76.48
56671;BME280;42545;50.054;8.306;2022-08-21T06:05:58;100079.50;;;15.41;76.07
56671;BME280;42545;50.054;8.306;2022-08-21T06:08:25;100063.50;;;15.50;75.21
56671;BME280;42545;50.054;8.306;2022-08-21T06:10:54;100066.13;;;15.57;74.81
56671;BME280;42545;50.054;8.306;2022-08-21T06:13:23;100067.88;;;15.66;74.53
56671;BME280;42545;50.054;8.306;2022-08-21T06:16:01;100070.53;;;15.75;74.49
56671;BME280;42545;50.054;8.306;2022-08-21T06:18:28;100066.91;;;15.86;74.42
56671;BME280;42545;50.054;8.306;2022-08-21T06:20:58;100067.78;;;15.91;73.58
56671;BME280;42545;50.054;8.306;2022-08-21T06:23:25;100067.72;;;15.97;73.84
56671;BME280;42545;50.054;8.306;2022-08-21T06:25:52;100065.06;;;16.03;73.73
56671;BME280;42545;50.054;8.306;2022-08-21T06:28:19;100060.56;;;16.11;73.20
56671;BME280;42545;50.054;8.306;2022-08-21T06:30:48;100060.53;;;16.18;72.70
56671;BME280;42545;50.054;8.306;2022-08-21T06:33:15;100064.00;;;16.30;72.96
56671;BME280;42545;50.054;8.306;2022-08-21T06:35:41;100059.47;;;16.40;72.44
56671;BME280;42545;50.054;8.306;2022-08-21T06:38:08;100061.19;;;16.49;72.39
56671;BME280;42545;50.054;8.306;2022-08-21T06:40:36;100060.25;;;16.56;71.81
56671;BME280;42545;50.054;8.306;2022-08-21T06:43:08;100052.19;;;16.65;71.52
56671;BME280;42545;50.054;8.306;2022-08-21T06:45:35;100054.75;;;16.75;71.11
56671;BME280;42545;50.054;8.306;2022-08-21T06:48:04;100053.84;;;16.83;71.21
56671;BME280;42545;50.054;8.306;2022-08-21T06:50:32;100051.09;;;16.93;71.11
56671;BME280;42545;50.054;8.306;2022-08-21T06:53:01;100051.88;;;17.02;70.75
56671;BME280;42545;50.054;8.306;2022-08-21T06:55:28;100055.31;;;17.14;69.99
56671;BME280;42545;50.054;8.306;2022-08-21T06:57:55;100056.13;;;17.20;69.32
56671;BME280;42545;50.054;8.306;2022-08-21T07:00:22;100055.13;;;17.31;69.18
56671;BME280;42545;50.054;8.306;2022-08-21T07:02:49;100055.03;;;17.38;69.88
56671;BME280;42545;50.054;8.306;2022-08-21T07:05:18;100055.78;;;17.49;68.94
56671;BME280;42545;50.054;8.306;2022-08-21T07:07:45;100054.78;;;17.60;68.53
56671;BME280;42545;50.054;8.306;2022-08-21T07:10:13;100050.19;;;17.71;68.33
56671;BME280;42545;50.054;8.306;2022-08-21T07:12:40;100059.81;;;17.84;68.61
56671;BME280;42545;50.054;8.306;2022-08-21T07:15:08;100058.75;;;17.98;68.13
56671;BME280;42545;50.054;8.306;2022-08-21T07:17:35;100052.34;;;18.13;67.32
56671;BME280;42545;50.054;8.306;2022-08-21T07:20:03;100062.75;;;18.30;67.00
56671;BME280;42545;50.054;8.306;2022-08-21T07:22:32;100056.34;;;18.41;66.29
56671;BME280;42545;50.054;8.306;2022-08-21T07:24:59;100062.41;;;18.53;65.74
56671;BME280;42545;50.054;8.306;2022-08-21T07:27:26;100055.13;;;18.62;65.77
56671;BME280;42545;50.054;8.306;2022-08-21T07:29:53;100060.31;;;18.70;65.78
56671;BME280;42545;50.054;8.306;2022-08-21T07:32:20;100055.69;;;18.83;65.91
56671;BME280;42545;50.054;8.306;2022-08-21T07:34:47;100054.50;;;18.99;65.55
56671;BME280;42545;50.054;8.306;2022-08-21T07:43:59;100044.53;;;19.54;63.59
56671;BME280;42545;50.054;8.306;2022-08-21T07:46:26;100044.16;;;19.73;62.80
56671;BME280;42545;50.054;8.306;2022-08-21T07:48:55;100049.13;;;19.91;62.64
56671;BME280;42545;50.054;8.306;2022-08-21T07:51:24;100044.28;;;20.09;62.26
56671;BME280;42545;50.054;8.306;2022-08-21T07:53:55;100047.63;;;20.19;61.23
56671;BME280;42545;50.054;8.306;2022-08-21T07:56:22;100038.25;;;20.36;61.14
56671;BME280;42545;50.054;8.306;2022-08-21T08:05:35;100034.69;;;20.73;60.56
56671;BME280;42545;50.054;8.306;2022-08-21T08:11:24;100022.63;;;20.90;58.40
56671;BME280;42545;50.054;8.306;2022-08-21T08:13:52;100023.25;;;21.01;58.13
56671;BME280;42545;50.054;8.306;2022-08-21T08:23:04;100020.53;;;21.36;58.18
56671;BME280;42545;50.054;8.306;2022-08-21T08:25:31;100025.66;;;21.45;57.72
56671;BME280;42545;50.054;8.306;2022-08-21T08:27:58;100026.06;;;21.61;58.06
56671;BME280;42545;50.054;8.306;2022-08-21T08:30:25;100020.41;;;21.70;57.35
56671;BME280;42545;50.054;8.306;2022-08-21T08:32:52;100019.03;;;21.86;57.22
56671;BME280;42545;50.054;8.306;2022-08-21T08:35:19;100019.78;;;21.92;56.25
56671;BME280;42545;50.054;8.306;2022-08-21T08:37:46;100018.81;;;21.94;56.03
56671;BME280;42545;50.054;8.306;2022-08-21T08:40:20;100012.38;;;22.00;55.78
56671;BME280;42545;50.054;8.306;2022-08-21T08:42:49;100015.75;;;22.05;55.59
56671;BME280;42545;50.054;8.306;2022-08-21T08:45:18;100010.19;;;22.13;55.37
56671;BME280;42545;50.054;8.306;2022-08-21T08:47:49;100009.09;;;22.18;54.76
56671;BME280;42545;50.054;8.306;2022-08-21T08:50:25;99999.09;;;22.23;54.33
56671;BME280;42545;50.054;8.306;2022-08-21T08:53:11;99999.47;;;22.39;54.83
56671;BME280;42545;50.054;8.306;2022-08-21T08:55:44;99997.56;;;22.43;53.36
56671;BME280;42545;50.054;8.306;2022-08-21T08:58:17;99996.53;;;22.47;53.53
56671;BME280;42545;50.054;8.306;2022-08-21T09:00:47;100001.44;;;22.61;51.82
56671;BME280;42545;50.054;8.306;2022-08-21T09:03:16;99994.09;;;22.66;51.55
56671;BME280;42545;50.054;8.306;2022-08-21T09:05:46;100002.63;;;22.79;49.41
56671;BME280;42545;50.054;8.306;2022-08-21T09:08:39;99998.00;;;22.82;47.82
56671;BME280;42545;50.054;8.306;2022-08-21T09:11:26;100003.13;;;22.90;48.91
56671;BME280;42545;50.054;8.306;2022-08-21T09:14:03;99992.16;;;22.96;49.38
56671;BME280;42545;50.054;8.306;2022-08-21T09:16:44;99991.25;;;22.96;49.95
56671;BME280;42545;50.054;8.306;2022-08-21T09:19:23;99990.16;;;23.01;50.32
56671;BME280;42545;50.054;8.306;2022-08-21T09:22:08;99982.81;;;23.07;49.52
56671;BME280;42545;50.054;8.306;2022-08-21T09:24:45;99977.78;;;23.22;47.79
56671;BME280;42545;50.054;8.306;2022-08-21T09:27:18;99982.75;;;23.33;47.85
56671;BME280;42545;50.054;8.306;2022-08-21T09:29:49;99980.59;;;23.43;47.02
56671;BME280;42545;50.054;8.306;2022-08-21T09:32:19;99988.22;;;23.55;46.14
56671;BME280;42545;50.054;8.306;2022-08-21T09:34:58;99982.78;;;23.57;45.90
56671;BME280;42545;50.054;8.306;2022-08-21T09:37:27;99986.03;;;23.65;46.20
56671;BME280;42545;50.054;8.306;2022-08-21T09:39:56;99990.53;;;23.65;45.90
56671;BME280;42545;50.054;8.306;2022-08-21T09:42:27;99986.16;;;23.62;45.98
56671;BME280;42545;50.054;8.306;2022-08-21T09:45:11;99975.97;;;23.70;44.23
56671;BME280;42545;50.054;8.306;2022-08-21T09:47:39;99980.41;;;23.71;43.81
56671;BME280;42545;50.054;8.306;2022-08-21T09:50:09;99983.88;;;23.75;43.86
56671;BME280;42545;50.054;8.306;2022-08-21T09:52:44;99970.31;;;23.76;44.07
56671;BME280;42545;50.054;8.306;2022-08-21T09:55:18;99966.19;;;23.68;43.44
56671;BME280;42545;50.054;8.306;2022-08-21T09:58:04;99965.13;;;23.72;44.00
56671;BME280;42545;50.054;8.306;2022-08-21T10:00:34;99953.91;;;23.84;43.58
56671;BME280;42545;50.054;8.306;2022-08-21T10:03:09;99954.09;;;24.02;43.53
56671;BME280;42545;50.054;8.306;2022-08-21T10:05:37;99959.09;;;24.11;43.23
56671;BME280;42545;50.054;8.306;2022-08-21T10:08:03;99956.34;;;24.12;42.42
56671;BME280;42545;50.054;8.306;2022-08-21T10:10:32;99950.94;;;24.12;42.65
56671;BME280;42545;50.054;8.306;2022-08-21T10:13:12;99948.25;;;24.12;42.22
56671;BME280;42545;50.054;8.306;2022-08-21T10:15:50;99944.31;;;23.99;41.96
56671;BME280;42545;50.054;8.306;2022-08-21T10:18:22;99943.50;;;23.97;42.66
56671;BME280;42545;50.054;8.306;2022-08-21T10:20:57;99940.44;;;24.06;43.02
56671;BME280;42545;50.054;8.306;2022-08-21T10:23:40;99938.69;;;24.26;42.62
56671;BME280;42545;50.054;8.306;2022-08-21T10:26:24;99941.75;;;24.38;41.49
56671;BME280;42545;50.054;8.306;2022-08-21T10:29:03;99933.81;;;24.35;40.54
56671;BME280;42545;50.054;8.306;2022-08-21T10:31:42;99933.53;;;24.42;40.95
56671;BME280;42545;50.054;8.306;2022-08-21T10:34:27;99936.00;;;24.48;40.63
56671;BME280;42545;50.054;8.306;2022-08-21T10:37:06;99933.81;;;24.58;40.81
56671;BME280;42545;50.054;8.306;2022-08-21T10:39:45;99937.78;;;24.69;40.27
56671;BME280;42545;50.054;8.306;2022-08-21T10:42:23;99936.56;;;24.77;40.18
56671;BME280;42545;50.054;8.306;2022-08-21T10:45:02;99940.63;;;24.87;40.57
56671;BME280;42545;50.054;8.306;2022-08-21T10:47:35;99936.38;;;24.81;40.40
56671;BME280;42545;50.054;8.306;2022-08-21T10:50:12;99923.28;;;24.72;40.55
56671;BME280;42545;50.054;8.306;2022-08-21T10:52:50;99919.50;;;24.76;39.71
56671;BME280;42545;50.054;8.306;2022-08-21T10:55:22;99921.72;;;24.87;41.10
56671;BME280;42545;50.054;8.306;2022-08-21T10:57:52;99915.34;;;25.08;40.13
56671;BME280;42545;50.054;8.306;2022-08-21T11:00:26;99915.81;;;25.18;39.53
56671;BME280;42545;50.054;8.306;2022-08-21T11:02:58;99904.88;;;25.21;39.77
56671;BME280;42545;50.054;8.306;2022-08-21T11:05:31;99905.72;;;25.22;39.60
56671;BME280;42545;50.054;8.306;2022-08-21T11:08:04;99907.84;;;25.36;39.38
56671;BME280;42545;50.054;8.306;2022-08-21T11:10:40;99908.03;;;25.31;39.18
56671;BME280;42545;50.054;8.306;2022-08-21T11:13:21;99904.59;;;25.27;39.38
56671;BME280;42545;50.054;8.306;2022-08-21T11:15:56;99910.75;;;25.31;39.13
56671;BME280;42545;50.054;8.306;2022-08-21T11:18:28;99908.56;;;25.39;39.47
56671;BME280;42545;50.054;8.306;2022-08-21T11:21:15;99901.69;;;25.32;39.10
56671;BME280;42545;50.054;8.306;2022-08-21T11:23:50;99895.34;;;25.33;38.69
56671;BME280;42545;50.054;8.306;2022-08-21T11:26:24;99910.31;;;25.40;38.24
56671;BME280;42545;50.054;8.306;2022-08-21T11:29:00;99906.66;;;25.41;37.74
56671;BME280;42545;50.054;8.306;2022-08-21T11:31:41;99899.28;;;25.45;37.83
56671;BME280;42545;50.054;8.306;2022-08-21T11:34:22;99893.50;;;25.52;38.32
56671;BME280;42545;50.054;8.306;2022-08-21T11:37:01;99895.03;;;25.58;37.46
56671;BME280;42545;50.054;8.306;2022-08-21T11:39:39;99890.38;;;25.62;37.81
56671;BME280;42545;50.054;8.306;2022-08-21T11:42:28;99888.53;;;25.62;37.86
56671;BME280;42545;50.054;8.306;2022-08-21T11:45:08;99884.31;;;25.57;37.49
56671;BME280;42545;50.054;8.306;2022-08-21T11:47:51;99886.63;;;25.64;37.59
56671;BME280;42545;50.054;8.306;2022-08-21T11:50:24;99887.06;;;25.74;37.68
56671;BME280;42545;50.054;8.306;2022-08-21T11:52:56;99877.66;;;25.64;37.24
56671;BME280;42545;50.054;8.306;2022-08-21T11:55:29;99876.66;;;25.47;36.92
56671;BME280;42545;50.054;8.306;2022-08-21T11:58:00;99873.28;;;25.42;37.18
56671;BME280;42545;50.054;8.306;2022-08-21T12:00:32;99875.44;;;25.36;37.15
56671;BME280;42545;50.054;8.306;2022-08-21T12:03:14;99873.53;;;25.38;36.99
56671;BME280;42545;50.054;8.306;2022-08-21T12:05:52;99868.41;;;25.50;36.91
56671;BME280;42545;50.054;8.306;2022-08-21T12:08:28;99872.91;;;25.69;36.02
56671;BME280;42545;50.054;8.306;2022-08-21T12:11:04;99869.69;;;25.80;35.98
56671;BME280;42545;50.054;8.306;2022-08-21T12:13:34;99858.63;;;25.84;36.00
56671;BME280;42545;50.054;8.306;2022-08-21T12:16:09;99866.13;;;25.79;35.91
56671;BME280;42545;50.054;8.306;2022-08-21T12:18:39;99865.06;;;25.82;36.40
56671;BME280;42545;50.054;8.306;2022-08-21T12:21:19;99866.00;;;25.81;36.06
56671;BME280;42545;50.054;8.306;2022-08-21T12:23:48;99860.72;;;25.79;36.34
56671;BME280;42545;50.054;8.306;2022-08-21T12:26:27;99859.97;;;25.76;35.86
56671;BME280;42545;50.054;8.306;2022-08-21T12:29:14;99850.91;;;25.77;36.28
56671;BME280;42545;50.054;8.306;2022-08-21T12:31:54;99854.31;;;25.80;36.42
56671;BME280;42545;50.054;8.306;2022-08-21T12:34:29;99856.00;;;25.83;35.83
56671;BME280;42545;50.054;8.306;2022-08-21T12:37:00;99856.50;;;25.91;35.57
56671;BME280;42545;50.054;8.306;2022-08-21T12:39:31;99854.47;;;25.96;35.06
56671;BME280;42545;50.054;8.306;2022-08-21T12:42:04;99850.03;;;26.13;35.18
56671;BME280;42545;50.054;8.306;2022-08-21T12:44:39;99844.53;;;26.32;34.27
56671;BME280;42545;50.054;8.306;2022-08-21T12:47:15;99844.06;;;26.41;34.21
56671;BME280;42545;50.054;8.306;2022-08-21T12:49:52;99838.56;;;26.42;34.34
56671;BME280;42545;50.054;8.306;2022-08-21T12:52:23;99844.34;;;26.52;34.73
56671;BME280;42545;50.054;8.306;2022-08-21T12:54:51;99838.25;;;26.66;34.73
56671;BME280;42545;50.054;8.306;2022-08-21T12:57:20;99841.16;;;26.79;34.17
56671;BME280;42545;50.054;8.306;2022-08-21T12:59:53;99839.16;;;26.82;33.39
56671;BME280;42545;50.054;8.306;2022-08-21T13:02:23;99834.47;;;26.86;33.58
56671;BME280;42545;50.054;8.306;2022-08-21T13:04:54;99833.97;;;26.95;33.08
56671;BME280;42545;50.054;8.306;2022-08-21T13:07:26;99835.44;;;27.01;33.16
56671;BME280;42545;50.054;8.306;2022-08-21T13:09:57;99830.38;;;26.95;33.25
56671;BME280;42545;50.054;8.306;2022-08-21T13:12:26;99827.84;;;26.92;33.60
56671;BME280;42545;50.054;8.306;2022-08-21T13:14:56;99831.19;;;26.97;33.48
56671;BME280;42545;50.054;8.306;2022-08-21T13:17:26;99815.56;;;27.02;32.86
56671;BME280;42545;50.054;8.306;2022-08-21T13:20:02;99814.50;;;27.04;32.94
56671;BME280;42545;50.054;8.306;2022-08-21T13:22:29;99816.75;;;27.12;33.16
56671;BME280;42545;50.054;8.306;2022-08-21T13:25:01;99820.00;;;27.19;33.19
56671;BME280;42545;50.054;8.306;2022-08-21T13:27:29;99815.13;;;27.26;32.64
56671;BME280;42545;50.054;8.306;2022-08-21T13:30:00;99812.78;;;27.35;33.31
56671;BME280;42545;50.054;8.306;2022-08-21T13:32:30;99807.00;;;27.41;32.01